Latest Weather Observations for Gold Coast Seaway

IDQ60901

Issued at 1:21 pm EST Saturday 25 June 2016 (issued every 10 minutes, with the page automatically refreshed every 10 minutes)

About weather observations | Map of Brisbane area stations | Latest observations for Brisbane area | Other Formats
Station Details ID: 040764 Name: GOLD COAST SEAWAY Lat: -27.94 Lon: 153.43 Height: 2.98 m
Data from the previous 72 hours. | See also: Recent months at Gold Coast Seaway
Date/Time
EST
Temp
°C
App
Temp
°C
Dew
Point
°C
Rel
Hum
%
Delta-T
°C
Wind Press
QNH
hPa
Press
MSL
hPa
Rain since
9am
mm
Dir  Spd
km/h
Gust
km/h
Spd
kts
Gust
kts
25/01:00pm 17.5 13.6 -1.7 27 8.0 E 9 13 5 7 1017.0 1017.0 0.0
25/12:30pm 17.2 13.2 -1.9 27 7.9 ESE 9 13 5 7 1017.3 1017.3 0.0
25/12:00pm 17.1 13.0 -3.1 25 8.1 WSW 9 13 5 7 1017.5 1017.5 0.0
25/11:30am 16.7 12.3 -2.4 27 7.8 W 11 17 6 9 1017.9 1017.9 0.0
25/11:00am 16.1 12.0 -2.9 27 7.6 SW 9 17 5 9 1018.2 1018.2 0.0
25/10:30am 15.7 11.3 -2.3 29 7.3 WSW 11 17 6 9 1018.1 1018.1 0.0
25/10:00am 15.0 10.2 -2.9 29 7.1 WSW 13 20 7 11 1018.1 1018.1 0.0
25/09:30am 14.5 9.0 -2.0 32 6.6 WSW 17 24 9 13 1018.0 1018.0 0.0
25/09:00am 13.9 8.7 -2.5 32 6.5 WSW 15 22 8 12 1017.9 1017.9 0.0
25/08:30am 13.2 7.2 -2.7 33 6.2 WSW 19 26 10 14 1017.6 1017.6 0.0
25/08:00am 12.6 7.1 -2.1 36 5.8 W 17 28 9 15 1017.5 1017.5 0.0
25/07:30am 11.8 6.0 -1.3 40 5.2 W 19 28 10 15 1017.2 1017.2 0.0
25/07:00am 11.4 5.7 -0.7 43 4.8 W 19 32 10 17 1016.6 1016.6 0.0
25/06:30am 10.0 6.2 -0.5 48 4.2 W 9 13 5 7 1016.9 1016.9 0.0
25/06:00am 10.8 6.7 -0.3 46 4.5 W 11 13 6 7 1016.6 1016.6 0.0
25/05:30am 11.3 7.1 -0.8 43 4.8 SW 11 15 6 8 1016.2 1016.2 0.0
25/05:00am 12.2 6.9 -0.6 41 5.2 W 17 24 9 13 1015.5 1015.5 0.0
25/04:30am 12.5 6.6 -0.7 40 5.4 W 20 26 11 14 1014.9 1014.9 0.0
25/04:00am 12.6 8.1 -0.3 41 5.3 W 13 19 7 10 1014.6 1014.6 0.0
25/03:30am 13.3 8.0 -0.3 39 5.6 WSW 17 26 9 14 1014.4 1014.4 0.0
25/03:00am 13.8 6.5 -0.3 38 5.8 W 28 41 15 22 1013.8 1013.8 0.0
25/02:30am 14.1 7.0 -1.1 35 6.2 W 26 33 14 18 1013.8 1013.8 0.0
25/02:00am 14.0 8.3 -0.4 37 6.0 W 19 22 10 12 1013.8 1013.8 0.0
25/01:30am 14.2 8.3 -0.6 36 6.1 W 20 28 11 15 1013.5 1013.5 0.0
25/01:00am 14.0 9.5 -0.1 38 5.9 WSW 13 17 7 9 1013.7 1013.7 0.0
25/12:30am 14.1 9.3 0.0 38 5.9 SSW 15 22 8 12 1013.4 1013.4 0.0
25/12:00am 15.3 9.5 -0.4 34 6.6 WSW 20 39 11 21 1012.7 1012.7 0.0
 
Date/Time
EST
Temp
°C
App
Temp
°C
Dew
Point
°C
Rel
Hum
%
Delta-T
°C
Wind Press
QNH
hPa
Press
MSL
hPa
Rain since
9am
mm
Dir  Spd
km/h
Gust
km/h
Spd
kts
Gust
kts
24/11:30pm 15.8 8.7 -1.3 31 7.1 W 26 33 14 18 1011.8 1011.8 0.0
24/11:00pm 16.2 9.6 -0.5 32 7.1 W 24 37 13 20 1011.9 1011.9 0.0
24/10:30pm 16.2 9.3 2.6 40 6.1 W 28 41 15 22 1011.7 1011.7 0.0
24/10:03pm 16.8 7.1 2.8 39 6.4 W 43 61 23 33 1011.1 1011.1 0.0
24/10:00pm 16.9 8.0 2.9 39 6.4 W 39 56 21 30 1011.0 1011.0 0.0
24/09:45pm 17.1 9.3 3.1 39 6.4 W 33 52 18 28 1010.7 1010.7 0.0
24/09:30pm 17.0 8.1 3.3 40 6.3 W 39 52 21 28 1010.8 1010.8 0.0
24/09:00pm 17.2 8.0 3.5 40 6.4 W 41 56 22 30 1010.9 1010.9 0.0
24/08:30pm 17.4 8.9 3.3 39 6.5 W 37 50 20 27 1010.9 1010.9 0.0
24/08:03pm 17.6 10.1 3.5 39 6.6 W 32 52 17 28 1010.8 1010.8 0.0
24/08:00pm 17.6 10.1 3.5 39 6.6 W 32 46 17 25 1010.8 1010.8 0.0
24/07:30pm 17.9 11.4 4.5 41 6.4 W 28 44 15 24 1010.7 1010.7 0.0
24/07:01pm 18.5 11.2 4.7 40 6.6 W 32 50 17 27 1010.3 1010.3 0.0
24/07:00pm 18.5 11.0 4.7 40 6.6 W 33 50 18 27 1010.3 1010.3 0.0
24/06:30pm 19.1 9.8 5.2 40 6.8 W 43 61 23 33 1009.8 1009.8 0.0
24/06:00pm 19.6 12.1 8.0 47 6.0 W 37 56 20 30 1009.2 1009.2 0.0
24/05:30pm 20.0 10.4 9.3 50 5.7 WNW 50 70 27 38 1008.5 1008.5 0.0
24/05:10pm 20.0 12.8 10.4 54 5.2 WNW 39 57 21 31 1008.3 1008.3 0.0
24/05:00pm 20.2 12.2 10.6 54 5.2 W 43 54 23 29 1008.2 1008.2 0.0
24/04:30pm 21.1 12.5 10.3 50 5.9 WNW 46 59 25 32 1007.8 1007.8 0.0
24/04:02pm 21.9 12.9 10.4 48 6.3 WNW 48 67 26 36 1007.7 1007.7 0.0
24/04:00pm 22.0 13.2 10.8 49 6.2 W 48 65 26 35 1007.6 1007.6 0.0
24/03:40pm 22.5 16.1 10.6 47 6.5 WNW 35 54 19 29 1007.5 1007.5 0.0
24/03:30pm 22.7 16.4 11.1 48 6.4 WNW 35 44 19 24 1007.5 1007.5 0.0
24/03:00pm 22.9 16.7 11.3 48 6.5 WNW 35 48 19 26 1007.4 1007.4 0.0
24/02:30pm 23.3 16.4 11.7 48 6.5 WNW 39 48 21 26 1007.6 1007.6 0.0
24/02:00pm 22.8 16.8 12.1 51 6.1 WNW 35 50 19 27 1007.7 1007.7 0.0
24/01:30pm 22.6 17.2 12.8 54 5.6 WNW 33 43 18 23 1007.9 1007.9 0.0
24/01:00pm 22.7 17.1 13.2 55 5.5 NW 35 44 19 24 1008.1 1008.1 0.0
24/12:30pm 22.1 16.3 12.6 55 5.4 NW 35 41 19 22 1008.6 1008.6 0.0
24/12:00pm 22.0 15.3 13.4 58 5.0 WNW 41 54 22 29 1008.9 1008.9 0.0
24/11:30am 21.5 14.1 12.9 58 4.9 WNW 44 61 24 33 1009.1 1009.1 0.0
24/11:00am 20.9 12.9 13.4 62 4.3 WNW 48 69 26 37 1009.4 1009.4 0.0
24/10:57am 20.7 12.2 13.2 62 4.3 WNW 50 69 27 37 1009.5 1009.5 0.0
24/10:30am 20.5 13.3 13.7 65 3.9 WNW 44 61 24 33 1010.1 1010.1 0.0
24/10:22am 20.3 13.2 13.5 65 3.9 WNW 43 61 23 33 1010.1 1010.1 0.0
24/10:00am 19.9 13.1 13.1 65 3.9 WNW 41 56 22 30 1010.6 1010.6 0.0
24/09:30am 19.1 12.2 12.8 67 3.5 WNW 41 52 22 28 1010.7 1010.7 0.0
24/09:00am 18.6 11.7 12.8 69 3.3 WNW 41 50 22 27 1010.9 1010.9 0.2
24/08:30am 18.4 11.2 13.1 71 3.0 WNW 43 52 23 28 1010.8 1010.8 0.2
24/08:00am 18.6 12.1 12.8 69 3.3 WNW 39 52 21 28 1010.8 1010.8 0.2
24/07:30am 18.2 13.1 13.1 72 2.9 WNW 32 39 17 21 1010.7 1010.7 0.2
24/07:00am 18.2 14.2 13.1 72 2.9 NW 26 39 14 21 1011.0 1011.0 0.2
24/06:30am 16.6 14.3 12.9 79 2.1 NNW 17 22 9 12 1011.1 1011.1 0.2
24/06:00am 16.7 14.0 13.0 79 2.1 NW 19 26 10 14 1010.7 1010.7 0.2
24/05:30am 16.9 14.2 12.8 77 2.3 NW 19 26 10 14 1010.8 1010.8 0.2
24/05:00am 17.2 14.9 12.9 76 2.4 NW 17 26 9 14 1010.6 1010.6 0.2
24/04:30am 17.2 14.4 12.5 74 2.6 NW 19 22 10 12 1010.2 1010.2 0.2
24/04:00am 16.9 14.5 12.6 76 2.4 NW 17 20 9 11 1010.9 1010.9 0.2
24/03:30am 16.9 14.1 12.6 76 2.4 NW 19 20 10 11 1010.7 1010.7 0.2
24/03:00am 16.9 14.5 12.6 76 2.4 NW 17 20 9 11 1011.2 1011.2 0.2
24/02:30am 16.8 15.5 12.5 76 2.4 NW 11 13 6 7 1011.4 1011.4 0.2
24/02:00am 16.8 14.3 12.3 75 2.5 WNW 17 20 9 11 1011.3 1011.3 0.2
24/01:30am 17.0 12.4 12.3 74 2.6 WNW 28 33 15 18 1011.9 1011.9 0.2
24/01:00am 17.4 12.7 12.1 71 2.9 NW 28 32 15 17 1012.2 1012.2 0.2
24/12:30am 17.0 15.4 12.9 77 2.3 NW 13 20 7 11 1012.2 1012.2 0.2
24/12:00am 16.5 14.8 12.5 77 2.2 NW 13 17 7 9 1012.2 1012.2 0.2
 
Date/Time
EST
Temp
°C
App
Temp
°C
Dew
Point
°C
Rel
Hum
%
Delta-T
°C
Wind Press
QNH
hPa
Press
MSL
hPa
Rain since
9am
mm
Dir  Spd
km/h
Gust
km/h
Spd
kts
Gust
kts
23/11:30pm 16.6 15.0 12.8 78 2.1 NW 13 17 7 9 1012.6 1012.6 0.2
23/11:00pm 16.7 14.7 12.8 78 2.2 NW 15 20 8 11 1012.8 1012.8 0.2
23/10:30pm 17.0 14.0 12.7 76 2.4 NW 20 24 11 13 1013.1 1013.1 0.2
23/10:00pm 16.8 14.2 13.1 79 2.1 NW 19 24 10 13 1013.0 1013.0 0.2
23/09:30pm 16.5 13.6 13.0 80 1.9 NW 20 26 11 14 1013.0 1013.0 0.2
23/09:00pm 16.4 13.8 13.1 81 1.8 NW 19 28 10 15 1012.7 1012.7 0.2
23/08:30pm 16.4 14.8 12.8 79 2.0 NNW 13 17 7 9 1012.4 1012.4 0.2
23/08:00pm 16.3 14.6 12.5 78 2.1 NNW 13 15 7 8 1012.5 1012.5 0.2
23/07:30pm 16.1 14.8 12.5 79 2.0 NNW 11 15 6 8 1012.7 1012.7 0.2
23/07:00pm 16.0 14.7 12.4 79 2.0 NNW 11 13 6 7 1012.6 1012.6 0.2
23/06:30pm 15.9 14.5 12.3 79 2.0 NNW 11 13 6 7 1012.5 1012.5 0.2
23/06:00pm 16.0 15.0 12.4 79 2.0 NNW 9 13 5 7 1012.3 1012.3 0.2
23/05:30pm 15.8 14.1 12.4 80 1.9 N 13 15 7 8 1012.3 1012.3 0.2
23/05:00pm 15.8 14.5 12.4 80 1.9 NNW 11 13 6 7 1012.2 1012.2 0.2
23/04:30pm 15.9 14.6 12.5 80 1.9 N 11 15 6 8 1012.1 1012.1 0.0
23/04:00pm 16.1 14.7 12.3 78 2.1 NNW 11 13 6 7 1012.2 1012.2 0.0
23/03:30pm 16.1 14.7 12.1 77 2.2 N 11 13 6 7 1012.1 1012.1 0.0
23/03:00pm 16.6 15.3 11.1 70 3.0 NNW 9 13 5 7 1012.2 1012.2 0.0
23/02:30pm 16.6 15.3 11.1 70 3.0 NNW 9 11 5 6 1012.4 1012.4 0.0
23/02:00pm 16.5 15.1 11.0 70 2.9 WNW 9 11 5 6 1012.4 1012.4 0.0
23/01:30pm 16.4 14.3 11.1 71 2.8 NW 13 15 7 8 1012.7 1012.7 0.0
23/01:00pm 16.3 14.5 12.1 76 2.3 NNW 13 20 7 11 1013.1 1013.1 0.0
23/12:30pm 16.2 13.1 11.6 74 2.5 NW 19 22 10 12 1013.8 1013.8 0.0
23/12:00pm 16.5 13.7 11.2 71 2.8 NW 17 22 9 12 1014.1 1014.1 0.0
23/11:30am 16.3 13.5 11.5 73 2.6 NNW 17 19 9 10 1014.2 1014.2 0.0
23/11:00am 16.4 14.9 12.0 75 2.4 NNW 11 15 6 8 1014.4 1014.4 0.0
23/10:30am 16.2 14.9 11.2 72 2.7 WNW 9 11 5 6 1015.5 1015.5 0.0
23/10:00am 16.4 14.4 10.3 67 3.2 W 11 15 6 8 1015.4 1015.4 0.0
23/09:30am 16.1 14.2 10.4 69 3.0 W 11 15 6 8 1015.5 1015.5 0.0
23/09:00am 15.9 14.0 10.4 70 2.9 W 11 15 6 8 1015.3 1015.3 0.0
23/08:30am 15.6 12.6 10.6 72 2.6 WNW 17 22 9 12 1015.3 1015.3 0.0
23/08:00am 15.0 11.6 11.4 79 1.9 WNW 20 26 11 14 1015.0 1015.0 0.0
23/07:30am 14.8 11.4 11.4 80 1.8 WNW 20 26 11 14 1014.8 1014.8 0.0
23/07:00am 14.9 11.9 12.0 83 1.6 NW 19 24 10 13 1015.0 1015.0 0.0
23/06:30am 15.1 13.1 11.5 79 1.9 NNW 13 15 7 8 1014.2 1014.2 0.0
23/06:00am 15.3 12.8 11.1 76 2.2 NW 15 19 8 10 1014.6 1014.6 0.0
23/05:30am 15.6 13.1 11.0 74 2.5 NW 15 20 8 11 1014.7 1014.7 0.0
23/05:00am 15.7 12.4 10.9 73 2.6 NNW 19 22 10 12 1013.9 1013.9 0.0
23/04:30am 15.9 13.7 10.7 71 2.8 NW 13 15 7 8 1013.5 1013.5 0.0
23/04:00am 16.2 14.2 10.3 68 3.1 NW 11 15 6 8 1013.4 1013.4 0.0
23/03:30am 16.4 14.5 10.5 68 3.1 NNW 11 15 6 8 1013.0 1013.0 0.0
23/03:00am 16.5 14.6 10.6 68 3.1 NW 11 13 6 7 1012.7 1012.7 0.0
23/02:30am 16.5 14.8 9.9 65 3.5 WNW 9 17 5 9 1013.1 1013.1 0.0
23/02:00am 16.9 14.4 9.8 63 3.7 NW 13 15 7 8 1012.9 1012.9 0.0
23/01:30am 17.0 15.3 9.7 62 3.8 NW 9 13 5 7 1012.8 1012.8 0.0
23/01:00am 17.1 16.6 9.3 60 4.1 W 2 6 1 3 1013.5 1013.5 0.0
23/12:30am 16.8 15.3 10.4 66 3.4 NNW 9 9 5 5 1014.0 1014.0 0.0
23/12:00am 17.2 15.2 10.1 63 3.8 NW 11 13 6 7 1013.6 1013.6 0.0
 
Date/Time
EST
Temp
°C
App
Temp
°C
Dew
Point
°C
Rel
Hum
%
Delta-T
°C
Wind Press
QNH
hPa
Press
MSL
hPa
Rain since
9am
mm
Dir  Spd
km/h
Gust
km/h
Spd
kts
Gust
kts
22/11:30pm 17.6 15.1 9.8 60 4.1 NW 13 17 7 9 1012.8 1012.8 0.0
22/11:00pm 17.7 15.9 9.6 59 4.3 NW 9 13 5 7 1013.4 1013.4 0.0
22/10:30pm 17.6 15.4 9.5 59 4.2 WNW 11 15 6 8 1013.6 1013.6 0.0
22/10:00pm 17.7 15.6 9.8 60 4.2 NW 11 17 6 9 1013.4 1013.4 0.0
22/09:30pm 18.1 15.1 9.2 56 4.6 W 15 20 8 11 1013.2 1013.2 0.0
22/09:00pm 17.9 15.7 9.5 58 4.4 W 11 13 6 7 1013.8 1013.8 0.0
22/08:30pm 18.1 15.9 9.5 57 4.5 NW 11 15 6 8 1013.2 1013.2 0.0
22/08:00pm 18.5 15.8 9.0 54 5.0 W 13 24 7 13 1013.0 1013.0 0.0
22/07:30pm 18.8 12.7 9.6 55 4.9 W 32 39 17 21 1012.6 1012.6 0.0
22/07:00pm 18.4 15.9 9.7 57 4.6 W 13 19 7 10 1013.4 1013.4 0.0
22/06:30pm 19.0 15.8 10.0 56 4.8 WNW 17 20 9 11 1013.2 1013.2 0.0
22/06:00pm 19.0 16.7 10.3 57 4.7 NW 13 15 7 8 1012.1 1012.1 0.0
22/05:30pm 19.2 15.6 9.7 54 5.0 NW 19 22 10 12 1011.7 1011.7 0.0
22/05:00pm 19.3 16.8 9.8 54 5.1 WNW 13 17 7 9 1011.5 1011.5 0.0
22/04:30pm 19.8 16.6 10.0 53 5.3 WNW 17 22 9 12 1011.1 1011.1 0.0
22/04:00pm 20.4 15.8 9.6 50 5.8 WNW 24 30 13 16 1010.7 1010.7 0.0
22/03:30pm 21.5 15.7 9.4 46 6.5 W 30 35 16 19 1010.6 1010.6 0.0
22/03:00pm 21.5 16.5 9.7 47 6.4 W 26 33 14 18 1010.1 1010.1 0.0
22/02:30pm 20.8 15.4 9.4 48 6.1 WNW 28 33 15 18 1010.2 1010.2 0.0
22/02:00pm 19.8 15.1 10.5 55 5.0 NW 26 33 14 18 1009.9 1009.9 0.0
22/01:30pm 19.7 15.6 10.1 54 5.2 NNW 22 30 12 16 1010.2 1010.2 0.0

Latest Capital City Observations: Canberra | Sydney | Melbourne | Brisbane | Adelaide | Perth | Hobart | Darwin

Other Formats:

Comma delimited format used in spreadsheet applications
http://www.bom.gov.au/fwo/IDQ60901/IDQ60901.94580.axf

JavaScript Object Notation format (JSON) in row-major order
http://www.bom.gov.au/fwo/IDQ60901/IDQ60901.94580.json